Tucson, Arizona
Current Conditions -  °F | °C
As of 7:58 AM on Tuesday 21 Oct 2014 (Local Time) from KDMA Reporting Station
Clear Clear  
Wind Chill: 66°   Ceiling: Unl
Heat Index: 66°   Visibility: 10mi
Dew Point: 50°   Wind: 10mph
Humidity: 56%   Direction: 120°ESE
Pressure: 29.97"   Gusts: NA
Location:  32.22°N, 110.96°W
Report Text: KDMA 211458Z AUTO 12009KT 10SM CLR 19/10 A2997 RMK AO2 SLP114 T01900101 52012 $
Loading
Personal Weather Stations






























Interactive Weather Map New forecast layout! Learn more

10-Day Weather Forecast

Advertisements
Track Severe Weather on mobile